createdAt,value
2023-02-04T00:00:08.937Z,99894.09
2023-02-04T00:02:35.625Z,99896.72
2023-02-04T00:05:02.356Z,99899.31
2023-02-04T00:07:29.036Z,99889.69
2023-02-04T00:09:55.893Z,99894.97
2023-02-04T00:12:22.711Z,99885.22
2023-02-04T00:14:49.586Z,99882.59
2023-02-04T00:17:17.071Z,99881.63
2023-02-04T00:19:43.881Z,99880.84
2023-02-04T00:22:10.831Z,99878.94
2023-02-04T00:24:38.369Z,99886.88
2023-02-04T00:27:06.029Z,99893.09
2023-02-04T00:29:32.784Z,99886.91
2023-02-04T00:31:59.586Z,99897.56
2023-02-04T00:34:27.404Z,99890.41
2023-02-04T00:36:54.043Z,99898.38
2023-02-04T00:39:20.717Z,99894.91
2023-02-04T00:41:47.337Z,99894.94
2023-02-04T00:44:14.382Z,99887.03
2023-02-04T00:46:42.477Z,99888.81
2023-02-04T00:49:10.866Z,99881.75
2023-02-04T00:51:39.037Z,99881.66
2023-02-04T00:54:06.861Z,99874.75
2023-02-04T00:56:35.426Z,99873.84
2023-02-04T00:59:02.688Z,99872.97
2023-02-04T01:01:29.650Z,99877.34
2023-02-04T01:03:56.303Z,99867.63
2023-02-04T01:06:23.823Z,99854.41
2023-02-04T01:08:50.753Z,99850.84
2023-02-04T01:11:18.483Z,99849.09
2023-02-04T01:13:45.604Z,99857.03
2023-02-04T01:16:13.122Z,99851.69
2023-02-04T01:18:39.764Z,99852.53
2023-02-04T01:21:06.538Z,99859.56
2023-02-04T01:23:33.271Z,99856.84
2023-02-04T01:26:00.366Z,99863.09
2023-02-04T01:28:27.302Z,99868.41
2023-02-04T01:30:54.220Z,99863.97
2023-02-04T01:33:21.692Z,99862.28
2023-02-04T01:35:48.340Z,99872.81
2023-02-04T01:38:15.015Z,99875.56
2023-02-04T01:40:42.676Z,99872.94
2023-02-04T01:43:11.454Z,99869.44
2023-02-04T01:45:38.388Z,99879.97
2023-02-04T01:48:06.701Z,99888.81
2023-02-04T01:50:34.125Z,99895.91
2023-02-04T01:53:01.182Z,99892.44
2023-02-04T01:55:30.375Z,99897.66
2023-02-04T01:57:58.713Z,99899.41
2023-02-04T02:00:33.709Z,99899.41
2023-02-04T02:03:00.826Z,99895.91
2023-02-04T02:05:35.470Z,99880.94
2023-02-04T02:08:04.645Z,99887.09
2023-02-04T02:10:32.579Z,99879.22
2023-02-04T02:12:59.700Z,99881.81
2023-02-04T02:15:26.809Z,99883.56
2023-02-04T02:17:55.327Z,99883.56
2023-02-04T02:20:24.786Z,99885.34
2023-02-04T02:23:06.845Z,99870.41
2023-02-04T02:25:33.890Z,99870.34
2023-02-04T02:28:02.761Z,99866.00
2023-02-04T02:30:30.081Z,99872.91
2023-02-04T02:32:57.696Z,99872.13
2023-02-04T02:35:24.465Z,99877.44
2023-02-04T02:37:51.519Z,99881.81
2023-02-04T02:40:18.708Z,99879.22
2023-02-04T02:42:48.020Z,99880.09
2023-02-04T02:45:22.731Z,99883.63
2023-02-04T02:47:50.443Z,99881.00
2023-02-04T02:50:21.185Z,99885.38
2023-02-04T02:52:48.980Z,99886.28
2023-02-04T02:55:18.401Z,99888.91
2023-02-04T02:57:46.678Z,99886.31
2023-02-04T03:00:34.051Z,99892.44
2023-02-04T03:03:16.002Z,99882.75
2023-02-04T03:05:46.541Z,99887.16
2023-02-04T03:08:15.173Z,99891.56
2023-02-04T03:10:43.202Z,99891.53
2023-02-04T03:13:12.099Z,99892.44
2023-02-04T03:15:39.116Z,99900.38
2023-02-04T03:18:06.386Z,99898.59
2023-02-04T03:20:34.087Z,99900.38
2023-02-04T03:23:01.180Z,99902.16
2023-02-04T03:25:28.337Z,99899.53
2023-02-04T03:27:58.466Z,99895.97
2023-02-04T03:30:26.446Z,99897.75
2023-02-04T03:32:53.695Z,99893.31
2023-02-04T03:35:20.601Z,99901.25
2023-02-04T03:37:47.575Z,99910.97
2023-02-04T03:40:14.278Z,99910.97
2023-02-04T03:42:40.960Z,99912.75
2023-02-04T03:45:08.023Z,99913.66
2023-02-04T03:47:34.624Z,99916.28
2023-02-04T03:50:01.290Z,99929.50
2023-02-04T03:52:28.035Z,99934.81
2023-02-04T03:54:54.681Z,99943.66
2023-02-04T03:57:21.706Z,99937.44
2023-02-04T03:59:48.371Z,99946.28
2023-02-04T04:02:14.989Z,99946.28
2023-02-04T04:04:41.739Z,99958.66
2023-02-04T04:07:08.382Z,99956.88
2023-02-04T04:09:35.038Z,99959.50
2023-02-04T04:12:03.527Z,99968.34
2023-02-04T04:14:30.262Z,99970.09
2023-02-04T04:16:56.880Z,99975.41
2023-02-04T04:19:24.708Z,99971.88
2023-02-04T04:21:51.414Z,99974.53
2023-02-04T04:24:18.277Z,99973.63
2023-02-04T04:26:44.971Z,99978.91
2023-02-04T04:29:11.727Z,99972.75
2023-02-04T04:31:38.543Z,99973.63
2023-02-04T04:34:05.322Z,99976.25
2023-02-04T04:36:32.155Z,99978.91
2023-02-04T04:38:59.649Z,99975.38
2023-02-04T04:41:26.307Z,99975.38
2023-02-04T04:43:53.010Z,99977.16
2023-02-04T04:46:19.664Z,99984.22
2023-02-04T04:48:46.311Z,99985.09
2023-02-04T04:51:12.907Z,99976.25
2023-02-04T04:53:39.554Z,99975.38
2023-02-04T04:56:06.457Z,99988.59
2023-02-04T04:58:33.092Z,99983.31
2023-02-04T05:00:59.794Z,99987.72
2023-02-04T05:03:27.131Z,99985.97
2023-02-04T05:05:53.791Z,99994.78
2023-02-04T05:08:20.913Z,99993.03
2023-02-04T05:10:47.911Z,99998.31
2023-02-04T05:13:16.238Z,99998.28
2023-02-04T05:15:43.017Z,100000.06
2023-02-04T05:18:09.747Z,99996.53
2023-02-04T05:20:36.457Z,100000.06
2023-02-04T05:23:05.460Z,100004.47
2023-02-04T05:25:33.138Z,100009.75
2023-02-04T05:27:59.914Z,100000.94
2023-02-04T05:30:26.553Z,100004.47
2023-02-04T05:32:53.272Z,100008.00
2023-02-04T05:35:20.309Z,100010.66
2023-02-04T05:37:46.973Z,100018.56
2023-02-04T05:40:14.055Z,100024.72
2023-02-04T05:42:41.744Z,100017.66
2023-02-04T05:45:18.958Z,100022.94
2023-02-04T05:47:45.920Z,100023.75
2023-02-04T05:50:12.942Z,100017.63
2023-02-04T05:52:40.321Z,100028.19
2023-02-04T05:55:08.265Z,100035.25
2023-02-04T05:57:34.890Z,100029.88
2023-02-04T06:00:01.656Z,100035.06
2023-02-04T06:02:38.722Z,100036.81
2023-02-04T06:05:05.937Z,100040.31
2023-02-04T06:07:32.602Z,100043.00
2023-02-04T06:10:00.326Z,100050.03
2023-02-04T06:12:27.111Z,100055.31
2023-02-04T06:14:53.797Z,100053.50
2023-02-04T06:17:20.447Z,100057.91
2023-02-04T06:19:47.120Z,100059.69
2023-02-04T06:22:13.809Z,100052.75
2023-02-04T06:24:40.440Z,100053.63
2023-02-04T06:27:07.125Z,100060.69
2023-02-04T06:29:33.774Z,100067.72
2023-02-04T06:32:00.472Z,100067.72
2023-02-04T06:34:27.252Z,100072.16
2023-02-04T06:36:53.909Z,100073.88
2023-02-04T06:39:21.118Z,100074.72
2023-02-04T06:41:47.758Z,100074.72
2023-02-04T06:44:14.346Z,100080.91
2023-02-04T06:46:41.006Z,100082.63
2023-02-04T06:49:07.659Z,100084.38
2023-02-04T06:51:34.268Z,100091.41
2023-02-04T06:54:00.872Z,100094.91
2023-02-04T06:56:29.360Z,100097.53
2023-02-04T06:58:55.981Z,100094.00
2023-02-04T07:01:22.631Z,100101.03
2023-02-04T07:03:49.312Z,100102.81
2023-02-04T07:06:16.122Z,100100.13
2023-02-04T07:08:42.801Z,100111.50
2023-02-04T07:11:09.535Z,100123.84
2023-02-04T07:13:36.177Z,100121.19
2023-02-04T07:16:02.878Z,100117.66
2023-02-04T07:18:29.700Z,100129.97
2023-02-04T07:20:56.397Z,100121.13
2023-02-04T07:23:24.782Z,100129.03
2023-02-04T07:25:55.908Z,100134.22
2023-02-04T07:28:23.042Z,100134.25
2023-02-04T07:30:50.091Z,100141.25
2023-02-04T07:33:17.217Z,100150.06
2023-02-04T07:35:44.374Z,100145.63
2023-02-04T07:38:10.985Z,100151.72
2023-02-04T07:40:39.133Z,100148.19
2023-02-04T07:43:05.978Z,100149.97
2023-02-04T07:45:33.661Z,100165.81
2023-02-04T07:48:00.312Z,100171.13
2023-02-04T07:50:27.006Z,100174.63
2023-02-04T07:52:53.820Z,100175.56
2023-02-04T07:55:20.477Z,100182.59
2023-02-04T07:57:47.155Z,100181.75
2023-02-04T08:00:14.457Z,100187.94
2023-02-04T08:02:41.874Z,100180.94
2023-02-04T08:05:09.852Z,100181.94
2023-02-04T08:07:36.601Z,100196.97
2023-02-04T08:10:04.727Z,100194.31
2023-02-04T08:12:31.486Z,100199.53
2023-02-04T08:14:58.370Z,100200.22
2023-02-04T08:17:25.131Z,100202.00
2023-02-04T08:19:51.876Z,100201.91
2023-02-04T08:22:18.558Z,100203.72
2023-02-04T08:24:45.343Z,100212.53
2023-02-04T08:27:12.039Z,100217.84
2023-02-04T08:29:38.675Z,100217.91
2023-02-04T08:32:05.491Z,100219.00
2023-02-04T08:34:32.233Z,100206.91
2023-02-04T08:36:58.898Z,100208.75
2023-02-04T08:39:25.535Z,100207.25
2023-02-04T08:41:52.129Z,100210.97
2023-02-04T08:44:18.719Z,100217.28
2023-02-04T08:46:45.464Z,100206.81
2023-02-04T08:49:12.231Z,100211.22
2023-02-04T08:51:38.925Z,100209.44
2023-02-04T08:54:05.539Z,100214.72
2023-02-04T08:56:32.155Z,100212.00
2023-02-04T08:58:58.741Z,100221.53
2023-02-04T09:01:25.443Z,100216.03
2023-02-04T09:03:52.288Z,100229.19
2023-02-04T09:06:19.267Z,100236.25
2023-02-04T09:08:45.910Z,100239.63
2023-02-04T09:11:12.592Z,100236.06
2023-02-04T09:13:39.506Z,100243.28
2023-02-04T09:16:06.556Z,100236.97
2023-02-04T09:18:33.328Z,100230.09
2023-02-04T09:21:00.360Z,100239.03
2023-02-04T09:23:26.954Z,100236.34
2023-02-04T09:25:53.711Z,100233.63
2023-02-04T09:28:20.402Z,100241.63
2023-02-04T09:30:48.458Z,100231.69
2023-02-04T09:33:16.859Z,100230.47
2023-02-04T09:35:43.889Z,100230.06
2023-02-04T09:38:10.819Z,100212.19
2023-02-04T09:40:42.511Z,100203.81
2023-02-04T09:43:18.146Z,100193.72
2023-02-04T09:45:44.943Z,100196.97
2023-02-04T09:48:14.511Z,100184.19
2023-02-04T09:50:41.667Z,100179.03
2023-02-04T09:53:14.922Z,100164.78
2023-02-04T09:55:45.398Z,100172.66
2023-02-04T09:58:18.007Z,100177.06
2023-02-04T10:00:46.692Z,100183.94
2023-02-04T10:03:18.976Z,100185.03
2023-02-04T10:05:46.899Z,100188.16
2023-02-04T10:08:19.702Z,100195.75
2023-02-04T10:10:49.044Z,100201.00
2023-02-04T10:13:27.343Z,100190.53
2023-02-04T10:15:54.019Z,100191.97
2023-02-04T10:18:28.902Z,100190.31
2023-02-04T10:21:11.760Z,100183.53
2023-02-04T10:23:38.685Z,100176.78
2023-02-04T10:26:05.318Z,100165.88
2023-02-04T10:28:36.754Z,100173.44
2023-02-04T10:31:04.068Z,100177.56
2023-02-04T10:33:31.654Z,100165.97
2023-02-04T10:35:58.355Z,100173.06
2023-02-04T10:38:25.065Z,100181.44
2023-02-04T10:41:05.732Z,100196.13
2023-02-04T10:43:32.621Z,100197.81
2023-02-04T10:46:02.717Z,100196.34
2023-02-04T10:48:30.856Z,100199.16
2023-02-04T10:50:59.213Z,100203.44
2023-02-04T10:53:45.670Z,100206.25
2023-02-04T10:56:21.199Z,100201.88
2023-02-04T10:58:49.355Z,100218.88
2023-02-04T11:01:16.832Z,100211.72
2023-02-04T11:03:47.006Z,100227.47
2023-02-04T11:06:21.761Z,100224.22
2023-02-04T11:08:50.145Z,100233.56
2023-02-04T11:11:20.311Z,100240.22
2023-02-04T11:13:49.923Z,100250.72
2023-02-04T11:16:35.451Z,100252.13
2023-02-04T11:19:10.828Z,100253.47
2023-02-04T11:21:37.408Z,100269.47
2023-02-04T11:24:16.216Z,100253.78
2023-02-04T11:26:49.205Z,100252.72
2023-02-04T11:29:16.684Z,100245.88
2023-02-04T11:31:49.559Z,100254.25
2023-02-04T11:34:16.211Z,100253.69
2023-02-04T11:36:58.997Z,100259.41
2023-02-04T11:39:34.147Z,100261.91
2023-02-04T11:42:01.482Z,100258.25
2023-02-04T11:44:28.563Z,100256.97
2023-02-04T11:46:56.775Z,100254.19
2023-02-04T11:49:25.558Z,100250.31
2023-02-04T11:52:03.940Z,100254.22
2023-02-04T11:54:30.600Z,100263.22
2023-02-04T11:56:59.785Z,100256.88
2023-02-04T11:59:26.763Z,100260.38
2023-02-04T12:02:16.723Z,100256.84
2023-02-04T12:04:58.396Z,100269.94
2023-02-04T12:07:28.553Z,100264.41
2023-02-04T12:09:55.995Z,100258.94
2023-02-04T12:12:30.762Z,100248.72
2023-02-04T12:15:03.993Z,100250.81
2023-02-04T12:17:30.767Z,100242.78
2023-02-04T12:19:57.457Z,100228.81
2023-02-04T12:22:24.129Z,100231.97
2023-02-04T12:24:52.331Z,100227.38
2023-02-04T12:27:19.406Z,100224.63
2023-02-04T12:29:46.214Z,100222.03
2023-02-04T12:32:12.894Z,100226.66
2023-02-04T12:34:39.590Z,100234.56
2023-02-04T12:37:06.201Z,100238.72
2023-02-04T12:39:32.838Z,100227.78
2023-02-04T12:41:59.452Z,100226.38
2023-02-04T12:44:26.116Z,100230.06
2023-02-04T12:46:52.832Z,100233.97
2023-02-04T12:49:20.794Z,100233.81
2023-02-04T12:51:47.400Z,100236.66
2023-02-04T12:54:14.087Z,100243.44
2023-02-04T12:56:41.467Z,100248.34
2023-02-04T12:59:08.120Z,100237.78
2023-02-04T13:01:34.863Z,100242.50
2023-02-04T13:04:01.628Z,100244.59
2023-02-04T13:06:28.365Z,100249.53
2023-02-04T13:08:55.023Z,100242.28
2023-02-04T13:11:21.651Z,100244.75
2023-02-04T13:13:48.292Z,100246.34
2023-02-04T13:16:14.974Z,100251.13
2023-02-04T13:18:41.629Z,100260.19
2023-02-04T13:21:08.350Z,100253.19
2023-02-04T13:23:35.037Z,100262.00
2023-02-04T13:26:01.976Z,100258.38
2023-02-04T13:28:28.626Z,100257.47
2023-02-04T13:30:55.254Z,100251.19
2023-02-04T13:33:21.974Z,100248.41
2023-02-04T13:35:48.624Z,100255.41
2023-02-04T13:38:15.224Z,100255.53
2023-02-04T13:40:41.879Z,100256.53
2023-02-04T13:43:08.680Z,100257.47
2023-02-04T13:45:35.785Z,100253.91
2023-02-04T13:48:02.670Z,100264.41
2023-02-04T13:50:30.072Z,100262.56
2023-02-04T13:52:56.824Z,100266.19
2023-02-04T13:55:24.291Z,100264.16
2023-02-04T13:57:50.922Z,100267.94
2023-02-04T14:00:17.947Z,100271.59
2023-02-04T14:02:44.658Z,100269.78
2023-02-04T14:05:11.515Z,100267.00
2023-02-04T14:07:38.103Z,100264.09
2023-02-04T14:10:05.177Z,100258.72
2023-02-04T14:12:31.783Z,100256.94
2023-02-04T14:14:58.540Z,100257.31
2023-02-04T14:17:25.270Z,100264.59
2023-02-04T14:19:51.909Z,100260.97
2023-02-04T14:22:18.564Z,100260.97
2023-02-04T14:24:47.434Z,100271.59
2023-02-04T14:27:17.069Z,100272.44
2023-02-04T14:29:43.732Z,100272.53
2023-02-04T14:32:10.388Z,100271.56
2023-02-04T14:34:37.084Z,100272.66
2023-02-04T14:37:03.703Z,100263.84
2023-02-04T14:39:30.335Z,100262.09
2023-02-04T14:41:57.059Z,100265.72
2023-02-04T14:44:23.676Z,100266.66
2023-02-04T14:46:50.438Z,100273.88
2023-02-04T14:49:17.504Z,100272.16
2023-02-04T14:51:44.580Z,100262.47
2023-02-04T14:54:11.335Z,100270.41
2023-02-04T14:56:38.323Z,100269.59
2023-02-04T14:59:05.203Z,100269.56
2023-02-04T15:01:32.037Z,100266.91
2023-02-04T15:03:58.809Z,100272.25
2023-02-04T15:06:25.550Z,100274.91
2023-02-04T15:08:52.377Z,100270.44
2023-02-04T15:11:19.095Z,100275.75
2023-02-04T15:13:46.617Z,100277.53
2023-02-04T15:16:14.747Z,100284.59
2023-02-04T15:18:41.885Z,100281.03
2023-02-04T15:21:08.620Z,100282.84
2023-02-04T15:23:35.361Z,100280.19
2023-02-04T15:26:05.130Z,100283.72
2023-02-04T15:28:31.989Z,100289.03
2023-02-04T15:30:58.815Z,100292.53
2023-02-04T15:33:25.608Z,100290.75
2023-02-04T15:35:52.286Z,100289.84
2023-02-04T15:38:19.128Z,100285.41
2023-02-04T15:40:45.858Z,100288.91
2023-02-04T15:43:12.554Z,100295.94
2023-02-04T15:45:41.424Z,100295.94
2023-02-04T15:48:08.522Z,100298.56
2023-02-04T15:50:35.598Z,100300.34
2023-02-04T15:53:02.651Z,100309.16
2023-02-04T15:55:29.522Z,100314.50
2023-02-04T15:57:56.323Z,100310.94
2023-02-04T16:00:25.275Z,100306.53
2023-02-04T16:02:52.023Z,100308.28
2023-02-04T16:05:18.793Z,100303.91
2023-02-04T16:07:45.538Z,100312.72
2023-02-04T16:10:12.270Z,100318.88
2023-02-04T16:12:41.825Z,100318.91
2023-02-04T16:15:09.382Z,100315.34
2023-02-04T16:17:36.644Z,100318.84
2023-02-04T16:20:03.891Z,100319.72
2023-02-04T16:22:30.777Z,100322.34
2023-02-04T16:24:57.518Z,100327.66
2023-02-04T16:27:24.395Z,100326.75
2023-02-04T16:29:51.229Z,100331.16
2023-02-04T16:32:18.125Z,100334.72
2023-02-04T16:34:45.289Z,100328.50
2023-02-04T16:37:12.103Z,100331.16
2023-02-04T16:39:39.008Z,100332.00
2023-02-04T16:42:08.566Z,100340.81
2023-02-04T16:44:38.674Z,100327.56
2023-02-04T16:47:06.950Z,100334.56
2023-02-04T16:49:34.228Z,100338.94
2023-02-04T16:52:04.234Z,100339.75
2023-02-04T16:54:31.749Z,100340.63
2023-02-04T16:57:00.327Z,100346.78
2023-02-04T16:59:28.359Z,100345.78
2023-02-04T17:01:57.588Z,100354.59
2023-02-04T17:04:28.990Z,100354.53
2023-02-04T17:06:56.471Z,100359.78
2023-02-04T17:09:23.166Z,100364.19
2023-02-04T17:11:49.897Z,100362.38
2023-02-04T17:14:16.638Z,100366.78
2023-02-04T17:16:43.926Z,100366.69
2023-02-04T17:19:10.878Z,100363.94
2023-02-04T17:21:40.768Z,100365.59
2023-02-04T17:24:08.431Z,100361.09
2023-02-04T17:26:39.714Z,100366.38
2023-02-04T17:29:08.822Z,100367.25
2023-02-04T17:31:35.962Z,100367.28
2023-02-04T17:34:03.271Z,100368.19
2023-02-04T17:36:31.166Z,100359.34
2023-02-04T17:38:57.967Z,100359.19
2023-02-04T17:41:24.705Z,100372.31
2023-02-04T17:43:51.504Z,100363.41
2023-02-04T17:46:18.242Z,100366.81
2023-02-04T17:48:44.938Z,100364.94
2023-02-04T17:51:11.723Z,100366.59
2023-02-04T17:53:40.402Z,100363.84
2023-02-04T17:56:12.292Z,100366.38
2023-02-04T17:58:39.541Z,100375.06
2023-02-04T18:01:15.702Z,100367.91
2023-02-04T18:03:43.229Z,100365.16
2023-02-04T18:06:27.121Z,100359.84
2023-02-04T18:09:01.146Z,100360.75
2023-02-04T18:11:31.760Z,100367.69
2023-02-04T18:14:25.216Z,100364.75
2023-02-04T18:16:56.758Z,100366.44
2023-02-04T18:19:30.866Z,100372.53
2023-02-04T18:21:58.656Z,100368.97
2023-02-04T18:24:30.324Z,100371.69
2023-02-04T18:27:01.221Z,100377.84
2023-02-04T18:29:33.004Z,100373.44
2023-02-04T18:32:25.883Z,100371.69
2023-02-04T18:34:55.154Z,100376.94
2023-02-04T18:37:42.126Z,100366.25
2023-02-04T18:40:08.748Z,100374.16
2023-02-04T18:42:43.651Z,100383.94
2023-02-04T18:45:31.014Z,100378.75
2023-02-04T18:48:00.404Z,100378.75
2023-02-04T18:50:34.323Z,100384.09
2023-02-04T18:53:13.493Z,100389.53
2023-02-04T18:55:51.362Z,100374.63
2023-02-04T18:58:36.143Z,100377.88
2023-02-04T19:01:11.643Z,100379.88
2023-02-04T19:04:02.190Z,100377.34
2023-02-04T19:06:39.331Z,100381.78
2023-02-04T19:09:12.192Z,100380.03
2023-02-04T19:11:41.802Z,100377.47
2023-02-04T19:14:22.892Z,100380.16
2023-02-04T19:16:52.471Z,100384.53
2023-02-04T19:19:39.193Z,100380.06
2023-02-04T19:22:26.955Z,100380.81
2023-02-04T19:25:19.177Z,100370.28
2023-02-04T19:27:50.891Z,100380.81
2023-02-04T19:30:26.790Z,100372.94
2023-02-04T19:32:58.066Z,100368.47
2023-02-04T19:35:35.476Z,100378.16
2023-02-04T19:38:28.677Z,100379.19
2023-02-04T19:40:55.376Z,100381.94
2023-02-04T19:43:24.316Z,100379.28
2023-02-04T19:45:51.241Z,100374.00
2023-02-04T19:48:38.313Z,100382.81
2023-02-04T19:51:17.790Z,100386.38
2023-02-04T19:53:46.962Z,100378.47
2023-02-04T19:56:43.364Z,100376.75
2023-02-04T19:59:29.583Z,100385.56
2023-02-04T20:02:21.391Z,100381.19
2023-02-04T20:04:54.084Z,100380.28
2023-02-04T20:07:25.032Z,100373.22
2023-02-04T20:10:22.497Z,100381.06
2023-02-04T20:12:52.175Z,100388.75
2023-02-04T20:15:20.926Z,100385.00
2023-02-04T20:17:49.088Z,100382.22
2023-02-04T20:20:30.967Z,100387.50
2023-02-04T20:22:59.427Z,100393.59
2023-02-04T20:25:39.689Z,100387.63
2023-02-04T20:28:19.583Z,100388.63
2023-02-04T20:30:49.260Z,100394.13
2023-02-04T20:33:29.691Z,100398.69
2023-02-04T20:36:28.170Z,100407.59
2023-02-04T20:39:19.735Z,100405.91
2023-02-04T20:41:47.080Z,100414.72
2023-02-04T20:44:23.213Z,100409.44
2023-02-04T20:46:49.898Z,100407.72
2023-02-04T20:49:26.171Z,100404.16
2023-02-04T20:52:00.068Z,100390.94
2023-02-04T20:54:30.389Z,100405.88
2023-02-04T20:57:14.846Z,100405.06
2023-02-04T20:59:42.804Z,100405.91
2023-02-04T21:02:20.925Z,100411.13
2023-02-04T21:04:53.557Z,100408.47
2023-02-04T21:07:22.589Z,100406.66
2023-02-04T21:09:49.874Z,100410.25
2023-02-04T21:12:16.636Z,100410.22
2023-02-04T21:14:43.350Z,100410.16
2023-02-04T21:17:09.988Z,100404.75
2023-02-04T21:19:37.394Z,100408.25
2023-02-04T21:22:04.104Z,100405.59
2023-02-04T21:24:31.802Z,100408.31
2023-02-04T21:26:58.863Z,100403.91
2023-02-04T21:29:26.073Z,100411.91
2023-02-04T21:31:54.376Z,100410.09
2023-02-04T21:34:21.485Z,100414.50
2023-02-04T21:36:48.215Z,100407.44
2023-02-04T21:39:14.927Z,100407.38
2023-02-04T21:41:41.564Z,100401.22
2023-02-04T21:44:08.329Z,100405.59
2023-02-04T21:46:35.045Z,100406.50
2023-02-04T21:49:02.411Z,100397.53
2023-02-04T21:51:29.139Z,100407.19
2023-02-04T21:53:55.945Z,100404.38
2023-02-04T21:56:22.672Z,100407.03
2023-02-04T21:58:49.324Z,100402.72
2023-02-04T22:01:15.945Z,100409.66
2023-02-04T22:03:42.701Z,100406.94
2023-02-04T22:06:09.356Z,100411.38
2023-02-04T22:08:36.001Z,100412.22
2023-02-04T22:11:02.752Z,100407.75
2023-02-04T22:13:29.372Z,100401.50
2023-02-04T22:15:56.109Z,100413.81
2023-02-04T22:18:22.988Z,100411.75
2023-02-04T22:20:49.624Z,100409.81
2023-02-04T22:23:16.568Z,100416.09
2023-02-04T22:25:46.315Z,100413.53
2023-02-04T22:28:14.235Z,100405.66
2023-02-04T22:30:40.907Z,100402.22
2023-02-04T22:33:07.625Z,100403.25
2023-02-04T22:35:36.656Z,100414.81
2023-02-04T22:38:03.474Z,100406.94
2023-02-04T22:40:30.453Z,100404.09
2023-02-04T22:42:57.171Z,100404.13
2023-02-04T22:45:23.841Z,100405.84
2023-02-04T22:47:50.540Z,100412.91
2023-02-04T22:50:17.233Z,100417.34
2023-02-04T22:52:44.093Z,100416.53
2023-02-04T22:55:10.829Z,100420.88
2023-02-04T22:57:37.481Z,100420.78
2023-02-04T23:00:08.907Z,100424.16
2023-02-04T23:02:35.683Z,100422.44
2023-02-04T23:05:03.204Z,100415.31
2023-02-04T23:07:30.807Z,100415.38
2023-02-04T23:09:57.604Z,100419.84
2023-02-04T23:12:24.321Z,100419.84
2023-02-04T23:14:51.110Z,100417.19
2023-02-04T23:17:18.241Z,100423.38
2023-02-04T23:19:45.438Z,100420.78
2023-02-04T23:22:13.228Z,100411.94
2023-02-04T23:24:41.168Z,100419.53
2023-02-04T23:27:10.752Z,100413.19
2023-02-04T23:29:38.375Z,100420.16
2023-02-04T23:32:05.207Z,100423.56
2023-02-04T23:34:34.655Z,100423.56
2023-02-04T23:37:01.751Z,100428.09
2023-02-04T23:39:28.596Z,100425.44
2023-02-04T23:41:55.286Z,100427.38
2023-02-04T23:44:21.922Z,100415.84
2023-02-04T23:46:48.640Z,100417.69
2023-02-04T23:49:15.724Z,100419.41
2023-02-04T23:51:42.473Z,100418.66
2023-02-04T23:54:09.190Z,100417.78
2023-02-04T23:56:35.927Z,100412.59
2023-02-04T23:59:02.740Z,100414.25
